This is the latest recevied weather packets stored in our database for station/object DM4XI-13. If no packets are shown the sender has not sent any weather packets the latest 10 day(s).
| Time | Temp. | Humidity | Pressure | Rain* | Wind** | Luminosity | Snow |
|---|---|---|---|---|---|---|---|
| 1777796951 | 20.56° C | 36% | 1014 hPa | 0 mm | 0 m/s | 434 W/m² | - |
| 1777796890 | 20.56° C | 35% | 1014.1 hPa | 0 mm | 0.89 m/s, 155° | 451 W/m² | - |
| 1777796829 | 20.56° C | 37% | 1014.2 hPa | 0 mm | 1.34 m/s, 190° | 456 W/m² | - |
| 1777796768 | 20.56° C | 38% | 1014 hPa | 0 mm | 0.89 m/s, 244° | 447 W/m² | - |
| 1777796707 | 20.56° C | 37% | 1014 hPa | 0 mm | 0.45 m/s, 206° | 450 W/m² | - |
| 1777796647 | 20.56° C | 38% | 1014.2 hPa | 0 mm | 0 m/s | 434 W/m² | - |
| 1777796585 | 20.56° C | 38% | 1014.1 hPa | 0 mm | 0.45 m/s, 253° | 431 W/m² | - |
| 1777796524 | 20.56° C | 40% | 1014.3 hPa | 0 mm | 0.45 m/s, 305° | 401 W/m² | - |
| 1777796463 | 20.56° C | 38% | 1014 hPa | 0 mm | 0.45 m/s, 48° | 362 W/m² | - |
| 1777796402 | 20.56° C | 39% | 1014.1 hPa | 0 mm | 0 m/s | 390 W/m² | - |
| 1777796341 | 20.56° C | 39% | 1014.1 hPa | 0 mm | 0.45 m/s, 171° | 408 W/m² | - |
| 1777796280 | 20.56° C | 39% | 1014.1 hPa | 0 mm | 0.45 m/s, 170° | 399 W/m² | - |
| 1777796219 | 20.56° C | 39% | 1014.2 hPa | 0 mm | 0 m/s | 397 W/m² | - |
| 1777796158 | 20.56° C | 40% | 1014.2 hPa | 0 mm | 0 m/s | 388 W/m² | - |
| 1777796097 | 20.56° C | 40% | 1014.4 hPa | 0 mm | 0.45 m/s, 167° | 393 W/m² | - |
| 1777796036 | 20° C | 39% | 1014.2 hPa | 0 mm | 0 m/s | 371 W/m² | - |
| 1777795975 | 20° C | 42% | 1014.2 hPa | 0 mm | 0 m/s | 387 W/m² | - |
| 1777795914 | 20° C | 40% | 1014.2 hPa | 0 mm | 0.45 m/s, 225° | 405 W/m² | - |
| 1777795853 | 20° C | 39% | 1014.3 hPa | 0 mm | 0 m/s | 409 W/m² | - |
| 1777795792 | 20° C | 40% | 1014.2 hPa | 0 mm | 0.45 m/s, 212° | 397 W/m² | - |
| 1777795731 | 20° C | 40% | 1014 hPa | 0 mm | 0.45 m/s, 228° | 394 W/m² | - |
| 1777795670 | 19.44° C | 40% | 1014.2 hPa | 0 mm | 0.45 m/s, 225° | 393 W/m² | - |
| 1777795609 | 19.44° C | 41% | 1014.4 hPa | 0 mm | 0 m/s | 406 W/m² | - |
| 1777795548 | 19.44° C | 41% | 1014.2 hPa | 0 mm | 0.45 m/s, 227° | 405 W/m² | - |
| 1777795486 | 19.44° C | 41% | 1014.2 hPa | 0 mm | 0 m/s | 402 W/m² | - |
* Rain latest hour (hover to see other rain measurements)
** Current wind speed in m/s (hover to see current wind gust speed)